createdAt,value
2023-05-10T06:50:19.123Z,140.62
2023-05-10T06:51:19.648Z,146.25
2023-05-10T06:52:19.076Z,151.88
2023-05-10T06:53:19.188Z,157.50
2023-05-10T06:54:19.061Z,157.50
2023-05-10T06:55:20.403Z,163.12
2023-05-10T06:56:20.159Z,163.12
2023-05-10T06:57:31.085Z,163.12
2023-05-10T06:58:22.177Z,163.12
2023-05-10T06:59:20.270Z,163.12
2023-05-10T07:00:20.515Z,163.12
2023-05-10T07:01:20.388Z,163.12
2023-05-10T07:02:20.148Z,168.75
2023-05-10T07:03:20.187Z,168.75
2023-05-10T07:04:20.129Z,168.75
2023-05-10T07:05:20.282Z,168.75
2023-05-10T07:06:32.296Z,163.12
2023-05-10T07:07:21.055Z,157.50
2023-05-10T07:08:20.100Z,157.50
2023-05-10T07:09:20.051Z,163.12
2023-05-10T07:10:20.018Z,157.50
2023-05-10T07:11:20.043Z,140.62
2023-05-10T07:12:20.114Z,118.12
2023-05-10T07:13:20.128Z,106.88
2023-05-10T07:14:19.984Z,95.62
2023-05-10T07:15:20.000Z,84.38
2023-05-10T07:16:20.034Z,78.75
2023-05-10T07:17:20.042Z,78.75
2023-05-10T07:18:19.969Z,78.75
2023-05-10T07:19:19.915Z,84.38
2023-05-10T07:20:19.888Z,84.38
2023-05-10T07:21:20.018Z,95.62
2023-05-10T07:22:19.933Z,106.88
2023-05-10T07:23:19.870Z,129.38
2023-05-10T07:24:19.958Z,151.88
2023-05-10T07:25:19.866Z,168.75
2023-05-10T07:26:19.938Z,163.12
2023-05-10T07:27:19.845Z,151.88
2023-05-10T07:28:19.824Z,151.88
2023-05-10T07:29:19.834Z,151.88
2023-05-10T07:30:19.907Z,157.50
2023-05-10T07:31:19.960Z,163.12
2023-05-10T07:32:19.841Z,168.75
2023-05-10T07:33:19.809Z,191.25
2023-05-10T07:34:19.782Z,202.50
2023-05-10T07:35:19.834Z,219.38
2023-05-10T07:36:19.858Z,225.00
2023-05-10T07:37:52.363Z,225.00
2023-05-10T07:38:19.970Z,225.00
2023-05-10T07:39:26.692Z,230.62
2023-05-10T07:40:21.862Z,247.50
2023-05-10T07:41:52.337Z,264.38
2023-05-10T07:42:52.282Z,281.25
2023-05-10T07:43:20.633Z,281.25
2023-05-10T07:44:53.444Z,281.25
2023-05-10T07:45:19.840Z,264.38
2023-05-10T07:46:19.819Z,225.00
2023-05-10T07:47:52.258Z,202.50
2023-05-10T07:48:52.236Z,180.00
2023-05-10T07:49:19.898Z,185.62
2023-05-10T07:50:19.932Z,180.00
2023-05-10T07:51:52.252Z,185.62
2023-05-10T07:52:53.177Z,196.88
2023-05-10T07:53:52.149Z,225.00
2023-05-10T07:54:19.866Z,241.88
2023-05-10T07:55:52.146Z,247.50
2023-05-10T07:56:52.246Z,275.62
2023-05-10T07:59:32.138Z,219.38
2023-05-10T08:00:39.788Z,185.62
2023-05-10T08:01:39.736Z,151.88
2023-05-10T08:02:39.857Z,135.00
2023-05-10T08:03:41.966Z,123.75
2023-05-10T08:05:05.749Z,118.12
2023-05-10T08:05:35.706Z,106.88
2023-05-10T08:07:05.745Z,106.88
2023-05-10T08:08:06.744Z,101.25
2023-05-10T08:09:08.014Z,106.88
2023-05-10T08:09:33.236Z,106.88
2023-05-10T08:11:05.698Z,112.50
2023-05-10T08:12:05.679Z,112.50
2023-05-10T08:12:33.312Z,118.12
2023-05-10T08:14:08.041Z,112.50
2023-05-10T08:14:33.254Z,106.88
2023-05-10T08:16:05.704Z,106.88
2023-05-10T08:16:33.424Z,112.50
2023-05-10T08:18:06.835Z,118.12
2023-05-10T08:19:05.802Z,118.12
2023-05-10T08:20:05.584Z,118.12
2023-05-10T08:21:05.593Z,118.12
2023-05-10T08:21:33.174Z,118.12
2023-05-10T08:22:33.204Z,123.75
2023-05-10T08:24:05.621Z,123.75
2023-05-10T08:24:33.293Z,129.38
2023-05-10T08:25:59.556Z,146.25
2023-05-10T08:26:33.247Z,157.50
2023-05-10T08:28:06.776Z,174.38
2023-05-10T08:28:33.233Z,180.00
2023-05-10T08:30:05.559Z,191.25
2023-05-10T08:30:33.125Z,202.50
2023-05-10T08:32:06.841Z,213.75
2023-05-10T08:32:33.053Z,241.88
2023-05-10T08:34:05.425Z,258.75
2023-05-10T08:34:33.173Z,281.25
2023-05-10T08:35:33.538Z,309.38
2023-05-10T08:36:32.880Z,241.88
2023-05-10T08:37:32.824Z,241.88
2023-05-10T08:39:07.707Z,236.25
2023-05-10T08:39:34.071Z,236.25
2023-05-10T08:41:06.892Z,236.25
2023-05-10T08:41:33.083Z,219.38
2023-05-10T08:43:05.402Z,208.12
2023-05-10T08:43:33.039Z,202.50
2023-05-10T08:44:33.052Z,208.12
2023-05-10T08:45:32.779Z,225.00
2023-05-10T08:47:06.871Z,247.50
2023-05-10T08:47:33.673Z,236.25
2023-05-10T08:49:05.310Z,236.25
2023-05-10T08:49:33.042Z,286.88
2023-05-10T08:51:06.617Z,303.75
2023-05-10T08:51:32.911Z,326.25
2023-05-10T08:53:05.336Z,326.25
2023-05-10T08:53:32.973Z,343.12
2023-05-10T08:55:07.498Z,343.12
2023-05-10T08:55:32.970Z,309.38
2023-05-10T08:57:05.365Z,275.62
2023-05-10T08:57:32.881Z,281.25
2023-05-10T08:59:05.355Z,286.88
2023-05-10T08:59:32.947Z,320.62
2023-05-10T09:00:32.877Z,337.50
2023-05-10T09:02:06.259Z,343.12
2023-05-10T09:02:32.936Z,343.12
2023-05-10T09:04:19.128Z,343.12
2023-05-10T09:04:32.992Z,354.38
2023-05-10T09:05:33.300Z,393.75
2023-05-10T09:07:05.217Z,371.25
2023-05-10T09:07:34.212Z,416.25
2023-05-10T09:09:06.259Z,438.75
2023-05-10T09:09:32.745Z,461.25
2023-05-10T09:10:32.656Z,483.75
2023-05-10T09:11:32.535Z,489.38
2023-05-10T09:12:32.489Z,489.38
2023-05-10T09:13:32.623Z,466.88
2023-05-10T09:14:32.558Z,455.62
2023-05-10T09:16:32.714Z,348.75
2023-05-10T09:17:32.820Z,247.50
2023-05-10T09:19:06.381Z,230.62
2023-05-10T09:19:32.740Z,230.62
2023-05-10T09:20:32.631Z,230.62
2023-05-10T09:22:06.211Z,230.62
2023-05-10T09:22:34.520Z,230.62
2023-05-10T09:24:07.651Z,230.62
2023-05-10T09:24:32.889Z,230.62
2023-05-10T09:25:32.540Z,241.88
2023-05-10T09:27:04.989Z,258.75
2023-05-10T09:28:06.344Z,281.25
2023-05-10T09:28:32.788Z,292.50
2023-05-10T09:30:04.969Z,281.25
2023-05-10T09:30:32.778Z,286.88
2023-05-10T09:32:04.879Z,303.75
2023-05-10T09:32:32.606Z,315.00
2023-05-10T09:34:04.834Z,309.38
2023-05-10T09:35:04.857Z,303.75
2023-05-10T09:35:32.784Z,298.12
2023-05-10T09:37:06.024Z,292.50
2023-05-10T09:37:32.554Z,331.88
2023-05-10T09:39:04.835Z,298.12
2023-05-10T09:40:07.283Z,326.25
2023-05-10T09:41:04.803Z,371.25
2023-05-10T09:41:32.610Z,393.75
2023-05-10T09:43:06.023Z,365.62
2023-05-10T09:43:32.358Z,382.50
2023-05-10T09:45:05.045Z,489.38
2023-05-10T09:46:07.130Z,523.12
2023-05-10T09:46:32.435Z,472.50
2023-05-10T09:48:04.859Z,466.88
2023-05-10T09:49:04.786Z,478.12
2023-05-10T09:49:32.382Z,421.88
2023-05-10T09:51:06.177Z,399.38
2023-05-10T09:51:58.715Z,410.62
2023-05-10T09:53:04.858Z,388.12
2023-05-10T09:54:04.754Z,303.75
2023-05-10T09:55:04.730Z,247.50
2023-05-10T09:55:32.227Z,213.75
2023-05-10T09:57:05.766Z,202.50
2023-05-10T09:58:04.658Z,202.50
2023-05-10T09:59:04.638Z,191.25
2023-05-10T10:00:05.846Z,191.25
2023-05-10T10:01:04.878Z,196.88
2023-05-10T10:02:04.685Z,208.12
2023-05-10T10:03:05.908Z,202.50
2023-05-10T10:03:32.112Z,202.50
2023-05-10T10:05:06.009Z,213.75
2023-05-10T10:06:04.600Z,230.62
2023-05-10T10:07:04.717Z,241.88
2023-05-10T10:07:32.308Z,247.50
2023-05-10T10:09:04.577Z,253.12
2023-05-10T10:09:32.161Z,264.38
2023-05-10T10:11:04.526Z,270.00
2023-05-10T10:11:32.193Z,270.00
2023-05-10T10:13:04.468Z,270.00
2023-05-10T10:13:32.104Z,270.00
2023-05-10T10:15:05.619Z,264.38
2023-05-10T10:15:32.116Z,264.38
2023-05-10T10:17:08.082Z,258.75
2023-05-10T10:18:04.485Z,253.12
2023-05-10T10:19:06.708Z,258.75
2023-05-10T10:20:04.431Z,258.75
2023-05-10T10:20:32.142Z,258.75
2023-05-10T10:22:04.468Z,258.75
2023-05-10T10:22:32.067Z,264.38
2023-05-10T10:23:32.050Z,270.00
2023-05-10T10:24:31.793Z,281.25
2023-05-10T10:26:04.345Z,286.88
2023-05-10T10:27:16.835Z,281.25
2023-05-10T10:27:32.019Z,270.00
2023-05-10T10:29:06.835Z,258.75
2023-05-10T10:30:04.280Z,253.12
2023-05-10T10:30:31.931Z,241.88
2023-05-10T10:32:04.313Z,241.88
2023-05-10T10:32:32.005Z,236.25
2023-05-10T10:34:06.312Z,230.62
2023-05-10T10:35:04.265Z,230.62
2023-05-10T10:36:04.276Z,225.00
2023-05-10T10:37:04.231Z,219.38
2023-05-10T10:38:05.471Z,225.00
2023-05-10T10:39:04.362Z,241.88
2023-05-10T10:39:31.921Z,247.50
2023-05-10T10:41:04.201Z,247.50
2023-05-10T10:41:31.840Z,247.50
2023-05-10T10:43:06.533Z,241.88
2023-05-10T10:43:31.795Z,258.75
2023-05-10T10:45:04.297Z,230.62
2023-05-10T10:46:04.167Z,213.75
2023-05-10T10:47:06.663Z,213.75
2023-05-10T10:48:04.180Z,213.75
2023-05-10T10:49:04.147Z,213.75
2023-05-10T10:50:04.310Z,219.38
2023-05-10T10:51:05.244Z,230.62
2023-05-10T10:52:05.227Z,247.50
2023-05-10T10:52:31.652Z,264.38
2023-05-10T10:53:31.686Z,281.25
2023-05-10T10:54:31.565Z,292.50
2023-05-10T10:56:06.239Z,303.75
2023-05-10T10:56:32.351Z,315.00
2023-05-10T10:59:46.469Z,320.62
2023-05-10T11:00:46.524Z,326.25
2023-05-10T11:01:46.400Z,326.25
2023-05-10T11:02:46.450Z,331.88
2023-05-10T11:03:46.505Z,337.50
2023-05-10T11:04:46.511Z,343.12
2023-05-10T11:09:01.874Z,331.88
2023-05-10T11:10:10.705Z,331.88
2023-05-10T11:11:09.626Z,331.88
2023-05-10T11:12:01.916Z,337.50
2023-05-10T11:13:09.555Z,337.50
2023-05-10T11:14:09.616Z,348.75
2023-05-10T11:15:11.713Z,360.00
2023-05-10T11:16:09.498Z,388.12
2023-05-10T11:17:03.207Z,444.38
2023-05-10T11:18:35.608Z,450.00
2023-05-10T11:19:37.850Z,433.12
2023-05-10T11:20:04.078Z,410.62
2023-05-10T11:21:02.963Z,399.38
2023-05-10T11:22:02.882Z,410.62
2023-05-10T11:23:35.466Z,405.00
2023-05-10T11:24:03.100Z,388.12
2023-05-10T11:25:35.422Z,371.25
2023-05-10T11:26:03.234Z,360.00
2023-05-10T11:27:03.213Z,360.00
2023-05-10T11:28:31.495Z,365.62
2023-05-10T11:29:03.065Z,376.88
2023-05-10T11:30:35.444Z,382.50
2023-05-10T11:31:35.455Z,382.50
2023-05-10T11:32:36.531Z,376.88
2023-05-10T11:33:03.091Z,371.25
2023-05-10T11:34:36.608Z,365.62
2023-05-10T11:35:02.923Z,360.00
2023-05-10T11:36:41.467Z,354.38
2023-05-10T11:37:03.014Z,337.50
2023-05-10T11:38:36.697Z,309.38
2023-05-10T11:41:17.125Z,225.00
2023-05-10T11:45:58.088Z,146.25
2023-05-10T11:49:11.357Z,118.12
2023-05-10T11:50:19.444Z,135.00
2023-05-10T11:51:46.092Z,157.50
2023-05-10T11:52:12.718Z,174.38
2023-05-10T11:53:12.785Z,185.62
2023-05-10T11:54:12.543Z,191.25
2023-05-10T11:55:12.523Z,191.25
2023-05-10T11:56:12.457Z,191.25
2023-05-10T11:59:26.491Z,191.25
2023-05-10T12:00:26.540Z,191.25
2023-05-10T12:03:14.836Z,191.25
2023-05-10T12:04:14.902Z,191.25
2023-05-10T12:05:14.648Z,191.25
2023-05-10T12:06:14.875Z,191.25
2023-05-10T12:07:15.818Z,196.88
2023-05-10T12:08:15.842Z,196.88
2023-05-10T12:09:16.707Z,196.88
2023-05-10T12:10:16.325Z,202.50
2023-05-10T12:11:15.813Z,208.12
2023-05-10T12:12:48.610Z,213.75
2023-05-10T12:13:15.890Z,230.62
2023-05-10T12:14:48.354Z,236.25
2023-05-10T12:15:16.661Z,253.12
2023-05-10T12:16:48.414Z,270.00
2023-05-10T12:17:49.467Z,281.25
2023-05-10T12:18:15.897Z,292.50
2023-05-10T12:22:27.639Z,298.12
2023-05-10T12:23:35.311Z,303.75
2023-05-10T12:24:37.679Z,309.38
2023-05-10T12:25:27.743Z,315.00
2023-05-10T12:26:35.490Z,320.62
2023-05-10T12:27:35.312Z,331.88
2023-05-10T12:29:02.696Z,337.50
2023-05-10T12:30:03.691Z,348.75
2023-05-10T12:34:41.033Z,388.12
2023-05-10T12:35:48.775Z,405.00
2023-05-10T12:39:50.711Z,466.88
2023-05-10T12:43:05.231Z,500.62
2023-05-10T12:44:14.064Z,483.75
2023-05-10T12:45:13.029Z,506.25
2023-05-10T12:46:22.937Z,511.88
2023-05-10T12:47:12.925Z,528.75
2023-05-10T12:48:40.278Z,523.12
2023-05-10T12:49:40.197Z,540.00
2023-05-10T12:52:21.197Z,523.12
2023-05-10T12:53:31.145Z,500.62
2023-05-10T12:54:28.891Z,500.62
2023-05-10T12:55:28.991Z,506.25
2023-05-10T12:56:29.512Z,601.88
2023-05-10T12:57:30.037Z,545.62
2023-05-10T12:58:35.497Z,585.00
2023-05-10T12:59:28.874Z,545.62
2023-05-10T13:00:21.164Z,568.12
2023-05-10T13:03:37.778Z,551.25
2023-05-10T13:04:45.557Z,551.25
2023-05-10T13:05:46.969Z,568.12
2023-05-10T13:06:47.593Z,540.00
2023-05-10T13:07:45.650Z,534.38
2023-05-10T13:09:06.704Z,528.75
2023-05-10T13:09:39.067Z,528.75
2023-05-10T13:11:13.797Z,528.75
2023-05-10T13:12:12.780Z,540.00
2023-05-10T13:13:11.409Z,517.50
2023-05-10T13:14:12.426Z,540.00
2023-05-10T13:14:39.496Z,528.75
2023-05-10T13:16:12.930Z,511.88
2023-05-10T13:16:39.123Z,500.62
2023-05-10T13:18:12.748Z,528.75
2023-05-10T13:19:11.428Z,500.62
2023-05-10T13:20:11.515Z,489.38
2023-05-10T13:21:12.589Z,511.88
2023-05-10T13:22:11.358Z,511.88
2023-05-10T13:23:11.285Z,511.88
2023-05-10T13:23:39.071Z,500.62
2023-05-10T13:24:39.029Z,500.62
2023-05-10T13:29:16.892Z,495.00
2023-05-10T13:30:17.217Z,495.00
2023-05-10T13:31:24.692Z,483.75
2023-05-10T13:32:17.288Z,455.62
2023-05-10T13:33:44.609Z,438.75
2023-05-10T13:34:18.362Z,421.88
2023-05-10T13:35:52.818Z,410.62
2023-05-10T13:36:18.211Z,393.75
2023-05-10T13:37:18.206Z,382.50
2023-05-10T13:38:50.594Z,371.25
2023-05-10T13:41:33.609Z,331.88
2023-05-10T13:42:33.623Z,320.62
2023-05-10T13:43:33.584Z,303.75
2023-05-10T13:45:08.323Z,286.88
2023-05-10T13:46:18.492Z,264.38
2023-05-10T13:46:35.042Z,247.50
2023-05-10T13:48:07.250Z,230.62
2023-05-10T13:49:08.354Z,213.75
2023-05-10T13:49:34.831Z,202.50
2023-05-10T13:51:01.421Z,191.25
2023-05-10T13:51:34.830Z,180.00
2023-05-10T13:53:10.147Z,168.75
2023-05-10T13:53:34.919Z,151.88
2023-05-10T13:58:15.791Z,129.38
2023-05-10T14:00:43.793Z,129.38
2023-05-10T14:01:43.860Z,129.38
2023-05-10T14:02:44.108Z,129.38
2023-05-10T14:03:43.936Z,129.38
2023-05-10T14:04:43.674Z,135.00
2023-05-10T14:05:43.705Z,140.62
2023-05-10T14:06:44.318Z,146.25
2023-05-10T14:07:44.800Z,151.88
2023-05-10T14:08:49.326Z,151.88
2023-05-10T14:09:45.577Z,163.12
2023-05-10T14:10:46.668Z,174.38
2023-05-10T14:11:45.363Z,180.00
2023-05-10T14:12:44.860Z,185.62
2023-05-10T14:13:45.210Z,191.25
2023-05-10T14:14:45.466Z,191.25
2023-05-10T14:15:44.780Z,191.25
2023-05-10T14:16:44.926Z,196.88
2023-05-10T14:17:44.772Z,196.88
2023-05-10T14:18:44.776Z,196.88
2023-05-10T14:19:44.896Z,196.88
2023-05-10T14:20:45.527Z,196.88
2023-05-10T14:21:44.748Z,196.88
2023-05-10T14:22:44.662Z,202.50
2023-05-10T14:23:44.677Z,202.50
2023-05-10T14:24:44.753Z,208.12
2023-05-10T14:25:44.666Z,219.38
2023-05-10T14:26:44.717Z,230.62
2023-05-10T14:27:44.618Z,241.88
2023-05-10T14:28:44.643Z,258.75
2023-05-10T14:29:44.577Z,275.62
2023-05-10T14:30:44.723Z,303.75
2023-05-10T14:31:45.262Z,427.50
2023-05-10T14:32:44.723Z,360.00
2023-05-10T14:33:44.540Z,326.25
2023-05-10T14:34:44.570Z,326.25
2023-05-10T14:35:44.575Z,376.88
2023-05-10T14:36:44.622Z,343.12
2023-05-10T14:37:45.412Z,270.00
2023-05-10T14:38:44.550Z,264.38
2023-05-10T14:39:44.555Z,337.50
2023-05-10T14:40:44.690Z,258.75
2023-05-10T14:41:44.582Z,225.00
2023-05-10T14:42:44.526Z,225.00
2023-05-10T14:43:44.670Z,230.62
2023-05-10T14:44:44.566Z,247.50
2023-05-10T14:45:44.572Z,275.62
2023-05-10T14:47:17.017Z,405.00
2023-05-10T14:47:44.792Z,450.00
2023-05-10T14:48:44.669Z,382.50
2023-05-10T14:51:59.830Z,466.88
2023-05-10T14:52:59.882Z,298.12
2023-05-10T14:53:59.912Z,275.62
2023-05-10T14:56:48.970Z,466.88
2023-05-10T14:57:49.312Z,478.12
2023-05-10T14:58:50.354Z,500.62
2023-05-10T15:00:22.693Z,495.00
2023-05-10T15:00:50.364Z,365.62
2023-05-10T15:02:22.934Z,264.38
2023-05-10T15:02:50.391Z,241.88
2023-05-10T15:03:50.230Z,225.00
2023-05-10T15:04:50.087Z,213.75
2023-05-10T15:06:23.314Z,213.75
2023-05-10T15:06:50.260Z,225.00
2023-05-10T15:08:23.843Z,230.62
2023-05-10T15:09:23.347Z,241.88
2023-05-10T15:09:50.246Z,264.38
2023-05-10T15:10:50.245Z,286.88
2023-05-10T15:11:49.985Z,270.00
2023-05-10T15:13:24.909Z,264.38
2023-05-10T15:14:22.678Z,253.12
2023-05-10T15:15:22.515Z,230.62
2023-05-10T15:19:14.787Z,84.38
2023-05-10T15:20:22.444Z,67.50
2023-05-10T15:21:23.912Z,56.25
2023-05-10T15:22:14.772Z,50.62
2023-05-10T15:23:16.018Z,45.00
2023-05-10T15:24:48.484Z,45.00
2023-05-10T15:25:16.270Z,45.00
2023-05-10T15:26:50.475Z,45.00
2023-05-10T15:27:48.421Z,50.62
2023-05-10T15:28:16.129Z,56.25
2023-05-10T15:29:16.081Z,61.88
2023-05-10T15:30:15.792Z,61.88
2023-05-10T15:31:49.608Z,67.50
2023-05-10T15:32:16.373Z,67.50
2023-05-10T15:33:16.058Z,67.50
2023-05-10T15:34:15.798Z,73.12
2023-05-10T15:36:05.071Z,73.12
2023-05-10T15:36:16.012Z,73.12
2023-05-10T15:37:49.288Z,78.75
2023-05-10T15:38:16.003Z,78.75
2023-05-10T15:39:15.928Z,78.75
2023-05-10T15:40:15.722Z,78.75
2023-05-10T15:41:15.734Z,78.75
2023-05-10T15:42:15.640Z,78.75
2023-05-10T15:43:15.639Z,78.75
2023-05-10T15:44:15.655Z,78.75
2023-05-10T15:45:15.840Z,78.75
2023-05-10T15:46:15.623Z,78.75
2023-05-10T15:47:48.268Z,78.75
2023-05-10T15:48:15.827Z,78.75
2023-05-10T15:49:15.940Z,73.12
2023-05-10T15:50:49.673Z,73.12
2023-05-10T15:51:15.859Z,78.75
2023-05-10T15:54:31.292Z,78.75
2023-05-10T15:55:31.346Z,78.75
2023-05-10T15:56:31.288Z,78.75
2023-05-10T15:57:31.302Z,84.38
2023-05-10T15:58:31.213Z,84.38
2023-05-10T15:59:31.162Z,90.00
2023-05-10T16:00:32.393Z,95.62
2023-05-10T16:01:32.525Z,95.62
2023-05-10T16:02:32.360Z,95.62
2023-05-10T16:04:07.142Z,95.62
2023-05-10T16:04:32.555Z,95.62
2023-05-10T16:06:04.904Z,101.25
2023-05-10T16:06:32.710Z,101.25
2023-05-10T16:10:40.406Z,95.62
2023-05-10T16:11:48.387Z,95.62
2023-05-10T16:12:40.518Z,95.62
2023-05-10T16:13:40.512Z,90.00
2023-05-10T16:14:48.058Z,90.00
2023-05-10T16:15:48.221Z,90.00
2023-05-10T16:18:30.402Z,78.75
2023-05-10T16:23:14.338Z,84.38
2023-05-10T16:24:14.437Z,84.38
2023-05-10T16:25:14.320Z,84.38
2023-05-10T16:26:22.050Z,90.00
2023-05-10T16:27:14.405Z,90.00
2023-05-10T16:28:14.304Z,95.62
2023-05-10T16:29:14.304Z,95.62
2023-05-10T16:30:14.230Z,101.25
2023-05-10T16:31:15.395Z,106.88
2023-05-10T16:32:49.361Z,106.88
2023-05-10T16:33:15.699Z,112.50
2023-05-10T16:34:15.588Z,112.50
2023-05-10T16:35:15.454Z,118.12
2023-05-10T16:36:15.357Z,118.12
2023-05-10T16:37:47.851Z,112.50
2023-05-10T16:38:15.683Z,112.50
2023-05-10T16:43:50.521Z,78.75
2023-05-10T16:44:50.553Z,78.75
2023-05-10T16:45:50.558Z,73.12
2023-05-10T16:46:51.783Z,73.12
2023-05-10T16:47:51.613Z,73.12
2023-05-10T16:48:51.602Z,73.12
2023-05-10T16:49:51.884Z,73.12
2023-05-10T16:50:51.663Z,78.75
2023-05-10T16:55:44.953Z,90.00
2023-05-10T16:56:45.004Z,90.00
2023-05-10T16:57:44.989Z,90.00
2023-05-10T16:58:46.325Z,95.62
2023-05-10T16:59:46.082Z,95.62
2023-05-10T17:00:46.061Z,95.62
2023-05-10T17:01:46.137Z,95.62
2023-05-10T17:02:46.303Z,95.62
2023-05-10T17:03:46.081Z,95.62
2023-05-10T17:04:46.079Z,95.62
2023-05-10T17:05:45.994Z,95.62
2023-05-10T17:06:46.036Z,95.62
2023-05-10T17:07:45.973Z,95.62
2023-05-10T17:08:46.019Z,95.62
2023-05-10T17:09:46.775Z,95.62
2023-05-10T17:10:45.978Z,90.00
2023-05-10T17:11:46.196Z,90.00
2023-05-10T17:12:45.908Z,90.00
2023-05-10T17:13:45.921Z,90.00
2023-05-10T17:14:46.887Z,84.38
2023-05-10T17:15:45.989Z,84.38
2023-05-10T17:16:45.901Z,84.38
2023-05-10T17:17:45.938Z,78.75
2023-05-10T17:18:45.988Z,78.75
2023-05-10T17:19:45.874Z,78.75
2023-05-10T17:20:45.866Z,78.75
2023-05-10T17:21:45.855Z,78.75
2023-05-10T17:22:45.875Z,78.75
2023-05-10T17:23:45.816Z,73.12
2023-05-10T17:24:45.831Z,73.12
2023-05-10T17:25:45.853Z,73.12
2023-05-10T17:26:45.763Z,67.50
2023-05-10T17:27:45.798Z,67.50
2023-05-10T17:28:45.769Z,67.50
2023-05-10T17:29:45.758Z,61.88
2023-05-10T17:30:45.740Z,61.88
2023-05-10T17:31:45.853Z,61.88
2023-05-10T17:32:45.773Z,61.88
2023-05-10T17:33:45.726Z,56.25
2023-05-10T17:34:45.808Z,56.25
2023-05-10T17:35:45.702Z,56.25
2023-05-10T17:36:45.696Z,56.25
2023-05-10T17:37:45.686Z,50.62
2023-05-10T17:38:45.684Z,50.62
2023-05-10T17:39:45.642Z,50.62
2023-05-10T17:40:45.631Z,50.62
2023-05-10T17:41:45.772Z,50.62
2023-05-10T17:42:45.646Z,50.62
2023-05-10T17:43:45.640Z,45.00
2023-05-10T17:44:45.673Z,45.00
2023-05-10T17:45:45.670Z,45.00
2023-05-10T17:46:45.598Z,45.00
2023-05-10T17:47:45.604Z,39.38
2023-05-10T17:48:45.631Z,39.38
2023-05-10T17:49:45.600Z,39.38
2023-05-10T17:50:45.580Z,39.38
2023-05-10T17:51:45.544Z,33.75
2023-05-10T17:52:45.537Z,33.75
2023-05-10T17:53:45.559Z,33.75
2023-05-10T17:54:45.482Z,33.75
2023-05-10T17:55:45.548Z,33.75
2023-05-10T17:56:45.509Z,33.75
2023-05-10T17:57:45.517Z,33.75
2023-05-10T17:58:45.492Z,28.12
2023-05-10T17:59:45.531Z,28.12
2023-05-10T18:00:45.619Z,28.12
2023-05-10T18:01:45.662Z,28.12
2023-05-10T18:02:45.507Z,28.12
2023-05-10T18:03:45.449Z,28.12
2023-05-10T18:04:45.594Z,28.12
2023-05-10T18:05:45.473Z,28.12
2023-05-10T18:06:45.396Z,28.12
2023-05-10T18:07:45.840Z,28.12
2023-05-10T18:12:56.715Z,22.50
2023-05-10T18:13:58.139Z,22.50
2023-05-10T18:14:58.061Z,22.50
2023-05-10T18:15:57.804Z,22.50
2023-05-10T18:17:32.291Z,22.50
2023-05-10T18:17:58.500Z,16.88
2023-05-10T18:18:57.929Z,16.88
2023-05-10T18:19:57.710Z,16.88
2023-05-10T18:20:57.793Z,16.88
2023-05-10T18:21:57.761Z,16.88
2023-05-10T18:22:57.718Z,16.88
2023-05-10T18:23:57.783Z,16.88
2023-05-10T18:24:57.738Z,16.88
2023-05-10T18:25:57.676Z,16.88
2023-05-10T18:26:57.575Z,16.88
2023-05-10T18:27:57.709Z,16.88
2023-05-10T18:28:59.448Z,16.88
2023-05-10T18:29:57.660Z,16.88
2023-05-10T18:30:57.824Z,16.88
2023-05-10T18:31:57.648Z,16.88
2023-05-10T18:32:58.100Z,11.25
2023-05-10T18:33:57.556Z,11.25
2023-05-10T18:34:57.627Z,11.25
2023-05-10T18:35:57.595Z,11.25
2023-05-10T18:36:57.928Z,11.25
2023-05-10T18:37:57.994Z,11.25
2023-05-10T18:38:58.082Z,11.25
2023-05-10T18:39:57.851Z,11.25
2023-05-10T18:40:57.770Z,5.62
2023-05-10T18:41:57.577Z,5.62
2023-05-10T18:42:58.724Z,5.62
2023-05-10T18:43:58.364Z,5.62
2023-05-10T18:45:00.471Z,5.62
2023-05-10T18:46:00.380Z,5.62
2023-05-10T18:46:57.477Z,5.62
2023-05-10T18:47:58.140Z,5.62
2023-05-10T18:48:57.458Z,5.62
2023-05-10T18:49:57.496Z,0.00
2023-05-10T18:50:57.433Z,0.00
2023-05-10T18:51:57.490Z,0.00
2023-05-10T18:52:57.377Z,0.00
2023-05-10T18:53:57.330Z,0.00
2023-05-10T18:54:57.321Z,0.00
2023-05-10T18:55:57.649Z,0.00
2023-05-10T18:56:57.842Z,0.00
2023-05-10T18:58:00.179Z,0.00
2023-05-10T18:58:57.495Z,0.00
2023-05-10T18:59:57.694Z,0.00
2023-05-10T19:00:58.441Z,0.00
2023-05-10T19:01:58.811Z,0.00
2023-05-10T19:02:58.621Z,0.00
2023-05-10T19:04:38.384Z,0.00
2023-05-10T19:04:59.547Z,0.00
2023-05-10T19:05:57.517Z,0.00
2023-05-10T19:06:57.476Z,0.00
2023-05-10T19:07:57.505Z,0.00
2023-05-10T19:09:05.989Z,0.00
2023-05-10T19:09:57.412Z,0.00
2023-05-10T19:10:57.805Z,0.00
2023-05-10T19:11:57.589Z,0.00
2023-05-10T19:12:58.502Z,0.00
2023-05-10T19:13:59.363Z,0.00
2023-05-10T19:14:57.796Z,0.00
2023-05-10T19:15:59.241Z,0.00
2023-05-10T19:17:01.204Z,0.00
2023-05-10T19:17:58.339Z,0.00
2023-05-10T19:18:57.272Z,0.00
2023-05-10T19:19:58.262Z,0.00
2023-05-10T19:20:58.021Z,0.00
2023-05-10T19:21:57.121Z,0.00
2023-05-10T19:23:09.276Z,0.00
2023-05-10T19:24:00.140Z,0.00
2023-05-10T19:24:57.811Z,0.00
2023-05-10T19:25:58.600Z,0.00
2023-05-10T19:26:57.611Z,0.00
2023-05-10T19:27:57.131Z,0.00
2023-05-10T19:29:40.852Z,0.00
2023-05-10T19:29:59.704Z,0.00
2023-05-10T19:30:57.712Z,0.00
2023-05-10T19:31:57.783Z,0.00
2023-05-10T19:32:57.685Z,0.00
2023-05-10T19:34:00.541Z,0.00
2023-05-10T19:34:57.992Z,0.00
2023-05-10T19:35:57.418Z,0.00
2023-05-10T19:36:57.961Z,0.00
2023-05-10T19:37:58.420Z,0.00
2023-05-10T19:38:57.070Z,0.00
2023-05-10T19:39:56.908Z,0.00
2023-05-10T19:40:56.904Z,0.00
2023-05-10T19:41:58.867Z,0.00
2023-05-10T19:42:57.084Z,0.00
2023-05-10T19:43:57.373Z,0.00
2023-05-10T19:44:56.822Z,0.00
2023-05-10T19:45:58.236Z,0.00
2023-05-10T19:46:57.240Z,0.00
2023-05-10T19:47:57.067Z,0.00
2023-05-10T19:48:57.359Z,0.00
2023-05-10T19:49:58.105Z,0.00
2023-05-10T19:50:57.267Z,0.00
2023-05-10T19:51:57.343Z,0.00
2023-05-10T19:52:57.480Z,0.00
2023-05-10T19:56:39.531Z,0.00
2023-05-10T19:58:25.849Z,0.00
2023-05-10T20:00:13.637Z,0.00
2023-05-10T20:02:19.921Z,0.00
2023-05-10T20:03:19.631Z,0.00
2023-05-10T20:04:19.501Z,0.00
2023-05-10T20:11:19.931Z,0.00
2023-05-10T20:12:21.351Z,0.00
2023-05-10T20:13:20.316Z,0.00
2023-05-10T20:14:27.663Z,0.00
2023-05-10T20:15:25.777Z,0.00
2023-05-10T20:16:22.608Z,0.00
2023-05-10T20:17:21.756Z,0.00
2023-05-10T20:18:21.824Z,0.00
2023-05-10T20:19:21.207Z,0.00
2023-05-10T20:20:21.598Z,0.00
2023-05-10T20:21:21.745Z,0.00
2023-05-10T20:22:21.121Z,0.00
2023-05-10T20:23:21.339Z,0.00
2023-05-10T20:27:05.105Z,0.00
2023-05-10T20:28:05.409Z,0.00
2023-05-10T20:29:05.294Z,0.00
2023-05-10T20:30:05.058Z,0.00
2023-05-10T20:31:04.981Z,0.00
2023-05-10T20:32:06.298Z,0.00
2023-05-10T20:33:06.277Z,0.00
2023-05-10T20:34:06.310Z,0.00
2023-05-10T20:35:06.251Z,0.00
2023-05-10T20:36:06.867Z,0.00
2023-05-10T20:37:07.757Z,0.00
2023-05-10T20:38:06.346Z,0.00
2023-05-10T20:39:06.301Z,0.00
2023-05-10T20:40:06.525Z,0.00
2023-05-10T20:41:06.188Z,0.00
2023-05-10T20:42:06.245Z,0.00
2023-05-10T20:43:06.202Z,0.00
2023-05-10T20:44:06.238Z,0.00
2023-05-10T20:45:06.274Z,0.00
2023-05-10T20:46:06.140Z,0.00
2023-05-10T20:47:06.183Z,0.00
2023-05-10T20:48:06.300Z,0.00
2023-05-10T20:49:06.143Z,0.00
2023-05-10T20:50:06.152Z,0.00
2023-05-10T20:51:06.154Z,0.00
2023-05-10T20:52:06.901Z,0.00
2023-05-10T20:53:06.191Z,0.00
2023-05-10T20:54:06.288Z,0.00
2023-05-10T20:55:06.142Z,0.00
2023-05-10T20:56:06.480Z,0.00
2023-05-10T20:57:06.060Z,0.00
2023-05-10T20:58:06.120Z,0.00
2023-05-10T20:59:06.081Z,0.00
2023-05-10T21:00:06.004Z,0.00
2023-05-10T21:01:06.030Z,0.00
2023-05-10T21:02:06.070Z,0.00
2023-05-10T21:03:06.258Z,0.00
2023-05-10T21:04:05.945Z,0.00
2023-05-10T21:05:06.067Z,0.00
2023-05-10T21:06:06.103Z,0.00
2023-05-10T21:07:05.939Z,0.00